Bay Village, Ohio
Current Conditions -  °F | °C
As of 9:51 PM on Sunday 21 Dec 2014 (Local Time) from KCLE Reporting Station
Broken Clouds Broken Clouds  
Wind Chill: 23°   Ceiling: 25000
Heat Index: 28°   Visibility: 8mi
Dew Point: 20°   Wind: 5mph
Humidity: 72%   Direction: 110°ESE
Pressure: 30.25"   Gusts: NA
Location:  41.48°N, 81.92°W
Report Text: KCLE 220251Z 11004KT 8SM BKN250 M02/M07 A3025 RMK AO2 SLP252 T10221067 56008 $
Loading
Personal Weather Stations






























Interactive Weather Map New forecast layout! Learn more

10-Day Weather Forecast

Advertisements
Track Severe Weather on mobile